sensor_id;sensor_type;location;lat;lon;timestamp;P1;durP1;ratioP1;P2;durP2;ratioP2
8228;SDS011;4155;50.118;8.714;2022-07-22T00:01:31;10.20;;;6.90;;
8228;SDS011;4155;50.118;8.714;2022-07-22T00:03:59;8.07;;;6.40;;
8228;SDS011;4155;50.118;8.714;2022-07-22T00:06:28;7.60;;;6.27;;
8228;SDS011;4155;50.118;8.714;2022-07-22T00:08:56;8.00;;;6.27;;
8228;SDS011;4155;50.118;8.714;2022-07-22T00:11:25;9.70;;;6.20;;
8228;SDS011;4155;50.118;8.714;2022-07-22T00:13:55;7.23;;;6.03;;
8228;SDS011;4155;50.118;8.714;2022-07-22T00:16:22;6.60;;;5.73;;
8228;SDS011;4155;50.118;8.714;2022-07-22T00:18:50;8.90;;;6.70;;
8228;SDS011;4155;50.118;8.714;2022-07-22T00:21:19;10.87;;;6.27;;
8228;SDS011;4155;50.118;8.714;2022-07-22T00:23:46;6.93;;;5.73;;
8228;SDS011;4155;50.118;8.714;2022-07-22T00:26:15;6.63;;;5.97;;
8228;SDS011;4155;50.118;8.714;2022-07-22T00:28:43;7.43;;;5.27;;
8228;SDS011;4155;50.118;8.714;2022-07-22T00:31:12;7.20;;;5.50;;
8228;SDS011;4155;50.118;8.714;2022-07-22T00:33:41;6.77;;;5.70;;
8228;SDS011;4155;50.118;8.714;2022-07-22T00:36:09;10.07;;;5.50;;
8228;SDS011;4155;50.118;8.714;2022-07-22T00:38:37;8.37;;;5.13;;
8228;SDS011;4155;50.118;8.714;2022-07-22T00:41:05;12.07;;;5.50;;
8228;SDS011;4155;50.118;8.714;2022-07-22T00:43:48;5.80;;;4.40;;
8228;SDS011;4155;50.118;8.714;2022-07-22T00:46:23;5.87;;;4.90;;
8228;SDS011;4155;50.118;8.714;2022-07-22T00:48:51;6.50;;;4.47;;
8228;SDS011;4155;50.118;8.714;2022-07-22T00:51:21;7.37;;;4.90;;
8228;SDS011;4155;50.118;8.714;2022-07-22T00:53:49;10.23;;;4.30;;
8228;SDS011;4155;50.118;8.714;2022-07-22T00:56:18;4.93;;;4.43;;
8228;SDS011;4155;50.118;8.714;2022-07-22T00:58:46;5.00;;;4.37;;
8228;SDS011;4155;50.118;8.714;2022-07-22T01:01:15;4.90;;;4.40;;
8228;SDS011;4155;50.118;8.714;2022-07-22T01:03:47;5.93;;;4.50;;
8228;SDS011;4155;50.118;8.714;2022-07-22T01:06:20;6.80;;;4.13;;
8228;SDS011;4155;50.118;8.714;2022-07-22T01:08:48;6.20;;;3.80;;
8228;SDS011;4155;50.118;8.714;2022-07-22T01:11:18;6.80;;;4.50;;
8228;SDS011;4155;50.118;8.714;2022-07-22T01:13:47;7.97;;;4.70;;
8228;SDS011;4155;50.118;8.714;2022-07-22T01:16:16;6.07;;;4.77;;
8228;SDS011;4155;50.118;8.714;2022-07-22T01:18:45;7.33;;;4.50;;
8228;SDS011;4155;50.118;8.714;2022-07-22T01:21:16;6.70;;;4.27;;
8228;SDS011;4155;50.118;8.714;2022-07-22T01:23:45;5.53;;;4.67;;
8228;SDS011;4155;50.118;8.714;2022-07-22T01:26:14;5.53;;;4.07;;
8228;SDS011;4155;50.118;8.714;2022-07-22T01:28:41;4.43;;;4.03;;
8228;SDS011;4155;50.118;8.714;2022-07-22T01:31:09;4.93;;;4.27;;
8228;SDS011;4155;50.118;8.714;2022-07-22T01:33:37;4.63;;;4.23;;
8228;SDS011;4155;50.118;8.714;2022-07-22T01:36:05;7.50;;;4.60;;
8228;SDS011;4155;50.118;8.714;2022-07-22T01:38:35;4.77;;;4.27;;
8228;SDS011;4155;50.118;8.714;2022-07-22T01:41:03;6.00;;;4.73;;
8228;SDS011;4155;50.118;8.714;2022-07-22T01:43:31;6.63;;;4.40;;
8228;SDS011;4155;50.118;8.714;2022-07-22T01:45:58;5.33;;;4.00;;
8228;SDS011;4155;50.118;8.714;2022-07-22T01:48:26;7.73;;;4.93;;
8228;SDS011;4155;50.118;8.714;2022-07-22T01:50:58;5.67;;;5.00;;
8228;SDS011;4155;50.118;8.714;2022-07-22T01:53:26;5.43;;;4.93;;
8228;SDS011;4155;50.118;8.714;2022-07-22T01:55:55;4.60;;;4.20;;
8228;SDS011;4155;50.118;8.714;2022-07-22T01:58:23;5.00;;;4.33;;
8228;SDS011;4155;50.118;8.714;2022-07-22T02:00:54;8.67;;;4.50;;
8228;SDS011;4155;50.118;8.714;2022-07-22T02:03:21;8.37;;;5.37;;
8228;SDS011;4155;50.118;8.714;2022-07-22T02:05:49;8.20;;;5.50;;
8228;SDS011;4155;50.118;8.714;2022-07-22T02:08:17;5.10;;;4.60;;
8228;SDS011;4155;50.118;8.714;2022-07-22T02:10:45;5.93;;;5.33;;
8228;SDS011;4155;50.118;8.714;2022-07-22T02:13:14;6.10;;;5.03;;
8228;SDS011;4155;50.118;8.714;2022-07-22T02:15:42;5.70;;;5.00;;
8228;SDS011;4155;50.118;8.714;2022-07-22T02:18:12;4.97;;;4.53;;
8228;SDS011;4155;50.118;8.714;2022-07-22T02:20:41;6.00;;;5.40;;
8228;SDS011;4155;50.118;8.714;2022-07-22T02:23:09;7.23;;;5.40;;
8228;SDS011;4155;50.118;8.714;2022-07-22T02:25:38;7.60;;;5.60;;
8228;SDS011;4155;50.118;8.714;2022-07-22T02:28:07;6.60;;;5.37;;
8228;SDS011;4155;50.118;8.714;2022-07-22T02:30:38;5.23;;;4.70;;
8228;SDS011;4155;50.118;8.714;2022-07-22T02:33:06;9.10;;;5.33;;
8228;SDS011;4155;50.118;8.714;2022-07-22T02:35:34;8.10;;;5.73;;
8228;SDS011;4155;50.118;8.714;2022-07-22T02:38:02;8.07;;;5.60;;
8228;SDS011;4155;50.118;8.714;2022-07-22T02:40:30;6.57;;;5.40;;
8228;SDS011;4155;50.118;8.714;2022-07-22T02:42:58;5.03;;;4.57;;
8228;SDS011;4155;50.118;8.714;2022-07-22T02:45:27;9.23;;;5.57;;
8228;SDS011;4155;50.118;8.714;2022-07-22T02:47:56;5.30;;;4.77;;
8228;SDS011;4155;50.118;8.714;2022-07-22T02:50:24;8.13;;;5.13;;
8228;SDS011;4155;50.118;8.714;2022-07-22T02:52:52;6.20;;;5.23;;
8228;SDS011;4155;50.118;8.714;2022-07-22T02:55:20;8.33;;;5.43;;
8228;SDS011;4155;50.118;8.714;2022-07-22T02:57:47;6.50;;;5.00;;
8228;SDS011;4155;50.118;8.714;2022-07-22T03:00:15;13.10;;;6.20;;
8228;SDS011;4155;50.118;8.714;2022-07-22T03:02:43;7.30;;;5.23;;
8228;SDS011;4155;50.118;8.714;2022-07-22T03:05:12;5.50;;;4.53;;
8228;SDS011;4155;50.118;8.714;2022-07-22T03:07:40;5.73;;;5.10;;
8228;SDS011;4155;50.118;8.714;2022-07-22T03:10:08;6.17;;;4.87;;
8228;SDS011;4155;50.118;8.714;2022-07-22T03:12:35;8.03;;;4.70;;
8228;SDS011;4155;50.118;8.714;2022-07-22T03:15:04;6.17;;;5.13;;
8228;SDS011;4155;50.118;8.714;2022-07-22T03:17:33;5.90;;;5.13;;
8228;SDS011;4155;50.118;8.714;2022-07-22T03:20:01;5.80;;;5.00;;
8228;SDS011;4155;50.118;8.714;2022-07-22T03:22:31;5.93;;;5.20;;
8228;SDS011;4155;50.118;8.714;2022-07-22T03:24:59;7.67;;;5.47;;
8228;SDS011;4155;50.118;8.714;2022-07-22T03:27:27;7.53;;;5.50;;
8228;SDS011;4155;50.118;8.714;2022-07-22T03:29:54;7.60;;;5.90;;
8228;SDS011;4155;50.118;8.714;2022-07-22T03:32:23;7.00;;;5.10;;
8228;SDS011;4155;50.118;8.714;2022-07-22T03:34:52;7.53;;;6.00;;
8228;SDS011;4155;50.118;8.714;2022-07-22T03:37:28;7.53;;;5.63;;
8228;SDS011;4155;50.118;8.714;2022-07-22T03:39:58;6.60;;;5.23;;
8228;SDS011;4155;50.118;8.714;2022-07-22T03:42:25;9.20;;;5.70;;
8228;SDS011;4155;50.118;8.714;2022-07-22T03:44:53;15.17;;;6.13;;
8228;SDS011;4155;50.118;8.714;2022-07-22T03:47:21;6.50;;;5.07;;
8228;SDS011;4155;50.118;8.714;2022-07-22T03:49:50;6.73;;;5.07;;
8228;SDS011;4155;50.118;8.714;2022-07-22T03:52:18;9.90;;;5.80;;
8228;SDS011;4155;50.118;8.714;2022-07-22T03:54:45;6.40;;;5.63;;
8228;SDS011;4155;50.118;8.714;2022-07-22T03:57:14;12.33;;;6.30;;
8228;SDS011;4155;50.118;8.714;2022-07-22T03:59:42;5.70;;;5.10;;
8228;SDS011;4155;50.118;8.714;2022-07-22T04:02:10;10.03;;;5.87;;
8228;SDS011;4155;50.118;8.714;2022-07-22T04:04:38;11.17;;;5.90;;
8228;SDS011;4155;50.118;8.714;2022-07-22T04:07:06;9.60;;;6.37;;
8228;SDS011;4155;50.118;8.714;2022-07-22T04:09:33;10.57;;;5.80;;
8228;SDS011;4155;50.118;8.714;2022-07-22T04:12:01;7.43;;;6.33;;
8228;SDS011;4155;50.118;8.714;2022-07-22T04:14:30;6.07;;;5.57;;
8228;SDS011;4155;50.118;8.714;2022-07-22T04:16:58;9.40;;;6.73;;
8228;SDS011;4155;50.118;8.714;2022-07-22T04:19:26;10.90;;;6.50;;
8228;SDS011;4155;50.118;8.714;2022-07-22T04:21:53;7.20;;;6.23;;
8228;SDS011;4155;50.118;8.714;2022-07-22T04:24:21;9.13;;;6.50;;
8228;SDS011;4155;50.118;8.714;2022-07-22T04:26:49;7.10;;;6.00;;
8228;SDS011;4155;50.118;8.714;2022-07-22T04:29:17;7.20;;;5.20;;
8228;SDS011;4155;50.118;8.714;2022-07-22T04:31:46;5.80;;;5.30;;
8228;SDS011;4155;50.118;8.714;2022-07-22T04:34:14;9.60;;;5.40;;
8228;SDS011;4155;50.118;8.714;2022-07-22T04:36:41;7.20;;;5.20;;
8228;SDS011;4155;50.118;8.714;2022-07-22T04:39:09;8.70;;;5.20;;
8228;SDS011;4155;50.118;8.714;2022-07-22T04:41:37;8.27;;;5.27;;
8228;SDS011;4155;50.118;8.714;2022-07-22T04:44:04;6.50;;;4.30;;
8228;SDS011;4155;50.118;8.714;2022-07-22T04:46:33;6.23;;;4.70;;
8228;SDS011;4155;50.118;8.714;2022-07-22T04:49:02;6.00;;;4.57;;
8228;SDS011;4155;50.118;8.714;2022-07-22T04:51:30;5.20;;;4.67;;
8228;SDS011;4155;50.118;8.714;2022-07-22T04:53:58;4.87;;;4.47;;
8228;SDS011;4155;50.118;8.714;2022-07-22T04:56:26;5.40;;;4.43;;
8228;SDS011;4155;50.118;8.714;2022-07-22T04:58:54;4.50;;;4.10;;
8228;SDS011;4155;50.118;8.714;2022-07-22T05:01:23;5.73;;;5.13;;
8228;SDS011;4155;50.118;8.714;2022-07-22T05:03:51;6.53;;;5.10;;
8228;SDS011;4155;50.118;8.714;2022-07-22T05:06:21;6.70;;;5.13;;
8228;SDS011;4155;50.118;8.714;2022-07-22T05:08:48;7.50;;;5.93;;
8228;SDS011;4155;50.118;8.714;2022-07-22T05:11:16;5.20;;;4.70;;
8228;SDS011;4155;50.118;8.714;2022-07-22T05:13:44;9.47;;;6.17;;
8228;SDS011;4155;50.118;8.714;2022-07-22T05:16:12;10.50;;;5.37;;
8228;SDS011;4155;50.118;8.714;2022-07-22T05:18:40;6.70;;;5.87;;
8228;SDS011;4155;50.118;8.714;2022-07-22T05:21:08;7.57;;;5.87;;
8228;SDS011;4155;50.118;8.714;2022-07-22T05:23:37;6.83;;;5.33;;
8228;SDS011;4155;50.118;8.714;2022-07-22T05:26:04;6.43;;;5.83;;
8228;SDS011;4155;50.118;8.714;2022-07-22T05:28:32;5.90;;;5.30;;
8228;SDS011;4155;50.118;8.714;2022-07-22T05:31:00;6.43;;;5.70;;
8228;SDS011;4155;50.118;8.714;2022-07-22T05:33:28;7.23;;;5.97;;
8228;SDS011;4155;50.118;8.714;2022-07-22T05:35:58;6.20;;;5.43;;
8228;SDS011;4155;50.118;8.714;2022-07-22T05:38:26;8.53;;;5.40;;
8228;SDS011;4155;50.118;8.714;2022-07-22T05:40:55;5.47;;;4.97;;
8228;SDS011;4155;50.118;8.714;2022-07-22T05:43:23;5.10;;;4.60;;
8228;SDS011;4155;50.118;8.714;2022-07-22T05:45:51;5.47;;;4.97;;
8228;SDS011;4155;50.118;8.714;2022-07-22T05:48:19;4.90;;;4.50;;
8228;SDS011;4155;50.118;8.714;2022-07-22T05:50:46;6.23;;;5.30;;
8228;SDS011;4155;50.118;8.714;2022-07-22T05:53:14;5.80;;;5.03;;
8228;SDS011;4155;50.118;8.714;2022-07-22T05:55:42;7.40;;;5.00;;
8228;SDS011;4155;50.118;8.714;2022-07-22T05:58:11;7.30;;;5.20;;
8228;SDS011;4155;50.118;8.714;2022-07-22T06:00:39;10.70;;;5.20;;
8228;SDS011;4155;50.118;8.714;2022-07-22T06:03:08;7.43;;;6.07;;
8228;SDS011;4155;50.118;8.714;2022-07-22T06:05:43;6.63;;;4.57;;
8228;SDS011;4155;50.118;8.714;2022-07-22T06:08:11;6.40;;;5.50;;
8228;SDS011;4155;50.118;8.714;2022-07-22T06:10:39;5.30;;;4.80;;
8228;SDS011;4155;50.118;8.714;2022-07-22T06:13:06;5.50;;;5.00;;
8228;SDS011;4155;50.118;8.714;2022-07-22T06:15:36;7.00;;;5.00;;
8228;SDS011;4155;50.118;8.714;2022-07-22T06:18:04;14.13;;;5.10;;
8228;SDS011;4155;50.118;8.714;2022-07-22T06:20:31;6.90;;;5.20;;
8228;SDS011;4155;50.118;8.714;2022-07-22T06:22:59;7.37;;;4.90;;
8228;SDS011;4155;50.118;8.714;2022-07-22T06:25:27;6.77;;;5.13;;
8228;SDS011;4155;50.118;8.714;2022-07-22T06:28:08;7.70;;;5.33;;
8228;SDS011;4155;50.118;8.714;2022-07-22T06:30:37;6.47;;;5.23;;
8228;SDS011;4155;50.118;8.714;2022-07-22T06:33:06;10.13;;;6.00;;
8228;SDS011;4155;50.118;8.714;2022-07-22T06:35:34;7.00;;;4.60;;
8228;SDS011;4155;50.118;8.714;2022-07-22T06:38:01;8.20;;;5.57;;
8228;SDS011;4155;50.118;8.714;2022-07-22T06:40:32;8.37;;;5.23;;
8228;SDS011;4155;50.118;8.714;2022-07-22T06:43:00;6.70;;;5.57;;
8228;SDS011;4155;50.118;8.714;2022-07-22T06:45:29;5.53;;;5.03;;
8228;SDS011;4155;50.118;8.714;2022-07-22T06:47:58;9.90;;;6.17;;
8228;SDS011;4155;50.118;8.714;2022-07-22T06:50:25;7.67;;;5.83;;
8228;SDS011;4155;50.118;8.714;2022-07-22T06:52:54;9.27;;;6.70;;
8228;SDS011;4155;50.118;8.714;2022-07-22T06:55:22;7.27;;;6.07;;
8228;SDS011;4155;50.118;8.714;2022-07-22T06:57:50;8.40;;;6.37;;
8228;SDS011;4155;50.118;8.714;2022-07-22T07:00:19;8.07;;;6.50;;
8228;SDS011;4155;50.118;8.714;2022-07-22T07:02:47;9.00;;;6.87;;
8228;SDS011;4155;50.118;8.714;2022-07-22T07:05:16;7.60;;;5.57;;
8228;SDS011;4155;50.118;8.714;2022-07-22T07:07:45;6.77;;;5.60;;
8228;SDS011;4155;50.118;8.714;2022-07-22T07:10:13;11.47;;;5.80;;
8228;SDS011;4155;50.118;8.714;2022-07-22T07:12:42;6.70;;;5.67;;
8228;SDS011;4155;50.118;8.714;2022-07-22T07:15:10;6.10;;;5.33;;
8228;SDS011;4155;50.118;8.714;2022-07-22T07:17:54;8.00;;;5.73;;
8228;SDS011;4155;50.118;8.714;2022-07-22T07:20:25;6.83;;;5.80;;
8228;SDS011;4155;50.118;8.714;2022-07-22T07:22:53;6.30;;;5.27;;
8228;SDS011;4155;50.118;8.714;2022-07-22T07:25:21;5.60;;;5.00;;
8228;SDS011;4155;50.118;8.714;2022-07-22T07:27:51;7.57;;;5.40;;
8228;SDS011;4155;50.118;8.714;2022-07-22T07:30:20;7.10;;;5.50;;
8228;SDS011;4155;50.118;8.714;2022-07-22T07:32:49;7.17;;;4.80;;
8228;SDS011;4155;50.118;8.714;2022-07-22T07:35:17;6.00;;;5.43;;
8228;SDS011;4155;50.118;8.714;2022-07-22T07:37:46;6.37;;;5.37;;
8228;SDS011;4155;50.118;8.714;2022-07-22T07:40:14;6.20;;;5.60;;
8228;SDS011;4155;50.118;8.714;2022-07-22T07:42:41;6.03;;;5.30;;
8228;SDS011;4155;50.118;8.714;2022-07-22T07:45:13;8.30;;;6.67;;
8228;SDS011;4155;50.118;8.714;2022-07-22T07:47:41;6.73;;;6.13;;
8228;SDS011;4155;50.118;8.714;2022-07-22T07:50:09;6.63;;;5.60;;
8228;SDS011;4155;50.118;8.714;2022-07-22T07:52:37;6.40;;;5.80;;
8228;SDS011;4155;50.118;8.714;2022-07-22T07:55:07;8.87;;;6.33;;
8228;SDS011;4155;50.118;8.714;2022-07-22T07:57:38;7.00;;;5.60;;
8228;SDS011;4155;50.118;8.714;2022-07-22T08:00:07;7.33;;;5.93;;
8228;SDS011;4155;50.118;8.714;2022-07-22T08:02:38;7.23;;;6.53;;
8228;SDS011;4155;50.118;8.714;2022-07-22T08:05:07;8.00;;;4.53;;
8228;SDS011;4155;50.118;8.714;2022-07-22T08:07:36;11.80;;;5.10;;
8228;SDS011;4155;50.118;8.714;2022-07-22T08:10:05;6.57;;;4.50;;
8228;SDS011;4155;50.118;8.714;2022-07-22T08:12:55;4.90;;;3.80;;
8228;SDS011;4155;50.118;8.714;2022-07-22T08:15:24;5.33;;;3.70;;
8228;SDS011;4155;50.118;8.714;2022-07-22T08:17:53;3.97;;;3.67;;
8228;SDS011;4155;50.118;8.714;2022-07-22T08:20:21;5.47;;;3.37;;
8228;SDS011;4155;50.118;8.714;2022-07-22T08:22:50;4.53;;;3.87;;
8228;SDS011;4155;50.118;8.714;2022-07-22T08:25:20;4.90;;;3.43;;
8228;SDS011;4155;50.118;8.714;2022-07-22T08:27:48;4.03;;;3.10;;
8228;SDS011;4155;50.118;8.714;2022-07-22T08:30:17;5.77;;;3.47;;
8228;SDS011;4155;50.118;8.714;2022-07-22T08:32:46;3.87;;;3.40;;
8228;SDS011;4155;50.118;8.714;2022-07-22T08:35:14;3.73;;;3.07;;
8228;SDS011;4155;50.118;8.714;2022-07-22T08:37:41;3.43;;;3.13;;
8228;SDS011;4155;50.118;8.714;2022-07-22T08:40:11;4.63;;;3.10;;
8228;SDS011;4155;50.118;8.714;2022-07-22T08:42:42;7.20;;;3.10;;
8228;SDS011;4155;50.118;8.714;2022-07-22T08:45:10;3.70;;;3.40;;
8228;SDS011;4155;50.118;8.714;2022-07-22T08:47:44;4.37;;;3.70;;
8228;SDS011;4155;50.118;8.714;2022-07-22T08:50:12;4.50;;;3.63;;
8228;SDS011;4155;50.118;8.714;2022-07-22T08:52:40;10.77;;;3.90;;
8228;SDS011;4155;50.118;8.714;2022-07-22T08:55:08;7.23;;;4.20;;
8228;SDS011;4155;50.118;8.714;2022-07-22T08:57:36;3.30;;;3.00;;
8228;SDS011;4155;50.118;8.714;2022-07-22T09:00:10;3.53;;;2.93;;
8228;SDS011;4155;50.118;8.714;2022-07-22T09:02:40;5.77;;;3.80;;
8228;SDS011;4155;50.118;8.714;2022-07-22T09:05:09;4.50;;;3.40;;
8228;SDS011;4155;50.118;8.714;2022-07-22T09:08:00;4.13;;;3.73;;
8228;SDS011;4155;50.118;8.714;2022-07-22T09:10:30;6.50;;;3.87;;
8228;SDS011;4155;50.118;8.714;2022-07-22T09:12:59;7.03;;;3.87;;
8228;SDS011;4155;50.118;8.714;2022-07-22T09:15:30;4.30;;;3.90;;
8228;SDS011;4155;50.118;8.714;2022-07-22T09:18:00;4.97;;;3.93;;
8228;SDS011;4155;50.118;8.714;2022-07-22T09:20:32;5.70;;;4.13;;
8228;SDS011;4155;50.118;8.714;2022-07-22T09:23:00;5.10;;;4.20;;
8228;SDS011;4155;50.118;8.714;2022-07-22T09:25:30;6.53;;;4.90;;
8228;SDS011;4155;50.118;8.714;2022-07-22T09:28:09;5.17;;;4.63;;
8228;SDS011;4155;50.118;8.714;2022-07-22T09:30:46;4.90;;;4.50;;
8228;SDS011;4155;50.118;8.714;2022-07-22T09:33:17;4.53;;;3.97;;
8228;SDS011;4155;50.118;8.714;2022-07-22T09:35:46;8.40;;;4.50;;
8228;SDS011;4155;50.118;8.714;2022-07-22T09:38:16;5.43;;;4.30;;
8228;SDS011;4155;50.118;8.714;2022-07-22T09:40:46;12.23;;;4.27;;
8228;SDS011;4155;50.118;8.714;2022-07-22T09:43:16;4.63;;;4.23;;
8228;SDS011;4155;50.118;8.714;2022-07-22T09:45:47;5.13;;;4.60;;
8228;SDS011;4155;50.118;8.714;2022-07-22T09:48:17;5.87;;;4.60;;
8228;SDS011;4155;50.118;8.714;2022-07-22T09:50:46;6.20;;;4.70;;
8228;SDS011;4155;50.118;8.714;2022-07-22T09:53:15;8.50;;;4.97;;
8228;SDS011;4155;50.118;8.714;2022-07-22T09:55:44;4.90;;;4.40;;
8228;SDS011;4155;50.118;8.714;2022-07-22T09:58:12;6.30;;;5.10;;
8228;SDS011;4155;50.118;8.714;2022-07-22T10:00:41;5.30;;;4.63;;
8228;SDS011;4155;50.118;8.714;2022-07-22T10:03:14;7.80;;;4.67;;
8228;SDS011;4155;50.118;8.714;2022-07-22T10:05:44;5.20;;;4.70;;
8228;SDS011;4155;50.118;8.714;2022-07-22T10:08:13;5.40;;;4.90;;
8228;SDS011;4155;50.118;8.714;2022-07-22T10:10:41;5.27;;;4.70;;
8228;SDS011;4155;50.118;8.714;2022-07-22T10:13:09;7.93;;;4.37;;
8228;SDS011;4155;50.118;8.714;2022-07-22T10:15:37;6.00;;;4.80;;
8228;SDS011;4155;50.118;8.714;2022-07-22T10:18:08;6.90;;;4.43;;
8228;SDS011;4155;50.118;8.714;2022-07-22T10:20:43;6.53;;;5.30;;
8228;SDS011;4155;50.118;8.714;2022-07-22T10:23:11;6.43;;;4.87;;
8228;SDS011;4155;50.118;8.714;2022-07-22T10:25:50;5.40;;;4.90;;
8228;SDS011;4155;50.118;8.714;2022-07-22T10:28:20;6.37;;;4.37;;
8228;SDS011;4155;50.118;8.714;2022-07-22T10:30:50;8.93;;;5.00;;
8228;SDS011;4155;50.118;8.714;2022-07-22T10:33:18;6.70;;;3.87;;
8228;SDS011;4155;50.118;8.714;2022-07-22T10:35:55;8.53;;;4.77;;
8228;SDS011;4155;50.118;8.714;2022-07-22T10:38:24;4.63;;;4.07;;
8228;SDS011;4155;50.118;8.714;2022-07-22T10:40:53;10.03;;;4.70;;
8228;SDS011;4155;50.118;8.714;2022-07-22T10:43:23;6.90;;;4.50;;
8228;SDS011;4155;50.118;8.714;2022-07-22T10:45:54;5.77;;;4.70;;
8228;SDS011;4155;50.118;8.714;2022-07-22T10:48:23;5.67;;;4.83;;
8228;SDS011;4155;50.118;8.714;2022-07-22T10:51:08;6.63;;;4.80;;
8228;SDS011;4155;50.118;8.714;2022-07-22T10:53:41;6.77;;;5.03;;
8228;SDS011;4155;50.118;8.714;2022-07-22T10:56:22;16.13;;;4.77;;
8228;SDS011;4155;50.118;8.714;2022-07-22T10:58:53;5.70;;;4.60;;
8228;SDS011;4155;50.118;8.714;2022-07-22T11:01:23;7.97;;;4.60;;
8228;SDS011;4155;50.118;8.714;2022-07-22T11:03:54;4.27;;;3.87;;
8228;SDS011;4155;50.118;8.714;2022-07-22T11:06:25;6.53;;;4.50;;
8228;SDS011;4155;50.118;8.714;2022-07-22T11:08:55;6.37;;;4.30;;
8228;SDS011;4155;50.118;8.714;2022-07-22T11:11:31;5.83;;;3.97;;
8228;SDS011;4155;50.118;8.714;2022-07-22T11:14:10;6.77;;;4.80;;
8228;SDS011;4155;50.118;8.714;2022-07-22T11:16:39;9.23;;;5.33;;
8228;SDS011;4155;50.118;8.714;2022-07-22T11:19:07;9.20;;;4.53;;
8228;SDS011;4155;50.118;8.714;2022-07-22T11:21:36;6.40;;;4.57;;
8228;SDS011;4155;50.118;8.714;2022-07-22T11:24:11;9.63;;;4.77;;
8228;SDS011;4155;50.118;8.714;2022-07-22T11:26:40;8.27;;;4.83;;
8228;SDS011;4155;50.118;8.714;2022-07-22T11:29:10;5.20;;;4.70;;
8228;SDS011;4155;50.118;8.714;2022-07-22T11:31:43;8.10;;;4.87;;
8228;SDS011;4155;50.118;8.714;2022-07-22T11:34:11;6.23;;;4.87;;
8228;SDS011;4155;50.118;8.714;2022-07-22T11:36:41;6.83;;;4.70;;
8228;SDS011;4155;50.118;8.714;2022-07-22T11:39:11;6.40;;;4.53;;
8228;SDS011;4155;50.118;8.714;2022-07-22T11:41:40;5.87;;;4.57;;
8228;SDS011;4155;50.118;8.714;2022-07-22T11:44:08;6.10;;;4.73;;
8228;SDS011;4155;50.118;8.714;2022-07-22T11:46:36;7.60;;;5.60;;
8228;SDS011;4155;50.118;8.714;2022-07-22T11:49:05;8.20;;;4.40;;
8228;SDS011;4155;50.118;8.714;2022-07-22T11:51:33;11.27;;;4.90;;
8228;SDS011;4155;50.118;8.714;2022-07-22T11:54:05;5.23;;;4.73;;
8228;SDS011;4155;50.118;8.714;2022-07-22T11:56:33;7.00;;;4.90;;
8228;SDS011;4155;50.118;8.714;2022-07-22T11:59:01;7.83;;;4.83;;
8228;SDS011;4155;50.118;8.714;2022-07-22T12:01:32;9.43;;;5.67;;
8228;SDS011;4155;50.118;8.714;2022-07-22T12:04:05;5.50;;;4.63;;
8228;SDS011;4155;50.118;8.714;2022-07-22T12:06:35;6.73;;;4.60;;
8228;SDS011;4155;50.118;8.714;2022-07-22T12:09:06;8.10;;;4.90;;
8228;SDS011;4155;50.118;8.714;2022-07-22T12:11:36;10.10;;;4.93;;
8228;SDS011;4155;50.118;8.714;2022-07-22T12:14:06;5.30;;;4.90;;
8228;SDS011;4155;50.118;8.714;2022-07-22T12:16:41;7.40;;;5.03;;
8228;SDS011;4155;50.118;8.714;2022-07-22T12:19:11;6.60;;;5.20;;
8228;SDS011;4155;50.118;8.714;2022-07-22T12:21:52;5.87;;;5.33;;
8228;SDS011;4155;50.118;8.714;2022-07-22T12:24:27;7.60;;;4.90;;
8228;SDS011;4155;50.118;8.714;2022-07-22T12:26:56;9.00;;;4.83;;
8228;SDS011;4155;50.118;8.714;2022-07-22T12:29:28;10.90;;;5.10;;
8228;SDS011;4155;50.118;8.714;2022-07-22T12:31:57;12.17;;;5.53;;
8228;SDS011;4155;50.118;8.714;2022-07-22T12:34:31;5.10;;;4.60;;
8228;SDS011;4155;50.118;8.714;2022-07-22T12:37:13;7.00;;;5.17;;
8228;SDS011;4155;50.118;8.714;2022-07-22T12:39:54;7.27;;;4.97;;
8228;SDS011;4155;50.118;8.714;2022-07-22T12:42:25;9.63;;;5.57;;
8228;SDS011;4155;50.118;8.714;2022-07-22T12:44:58;10.20;;;5.77;;
8228;SDS011;4155;50.118;8.714;2022-07-22T12:47:41;9.67;;;5.23;;
8228;SDS011;4155;50.118;8.714;2022-07-22T12:50:18;7.33;;;5.70;;
8228;SDS011;4155;50.118;8.714;2022-07-22T12:52:47;6.37;;;5.27;;
8228;SDS011;4155;50.118;8.714;2022-07-22T12:55:37;4.70;;;4.40;;
8228;SDS011;4155;50.118;8.714;2022-07-22T12:58:07;6.67;;;5.27;;
8228;SDS011;4155;50.118;8.714;2022-07-22T13:00:36;4.70;;;4.20;;
8228;SDS011;4155;50.118;8.714;2022-07-22T13:03:04;13.27;;;5.20;;
8228;SDS011;4155;50.118;8.714;2022-07-22T13:05:32;9.33;;;5.23;;
8228;SDS011;4155;50.118;8.714;2022-07-22T13:08:01;6.37;;;5.00;;
8228;SDS011;4155;50.118;8.714;2022-07-22T13:10:34;5.43;;;4.90;;
8228;SDS011;4155;50.118;8.714;2022-07-22T13:13:05;8.47;;;5.10;;
8228;SDS011;4155;50.118;8.714;2022-07-22T13:15:32;5.33;;;4.60;;
8228;SDS011;4155;50.118;8.714;2022-07-22T13:18:01;11.50;;;4.87;;
8228;SDS011;4155;50.118;8.714;2022-07-22T13:20:28;8.33;;;5.20;;
8228;SDS011;4155;50.118;8.714;2022-07-22T13:22:56;7.73;;;4.93;;
8228;SDS011;4155;50.118;8.714;2022-07-22T13:25:24;5.70;;;5.20;;
8228;SDS011;4155;50.118;8.714;2022-07-22T13:27:54;13.03;;;4.93;;
8228;SDS011;4155;50.118;8.714;2022-07-22T13:30:22;8.47;;;5.53;;
8228;SDS011;4155;50.118;8.714;2022-07-22T13:32:52;7.03;;;4.63;;
8228;SDS011;4155;50.118;8.714;2022-07-22T13:35:19;5.83;;;5.23;;
8228;SDS011;4155;50.118;8.714;2022-07-22T13:37:50;5.60;;;4.97;;
8228;SDS011;4155;50.118;8.714;2022-07-22T13:40:19;5.60;;;5.10;;
8228;SDS011;4155;50.118;8.714;2022-07-22T13:42:47;7.60;;;4.40;;
8228;SDS011;4155;50.118;8.714;2022-07-22T13:45:16;7.23;;;5.17;;
8228;SDS011;4155;50.118;8.714;2022-07-22T13:47:44;6.37;;;4.80;;
8228;SDS011;4155;50.118;8.714;2022-07-22T13:50:12;7.60;;;5.40;;
8228;SDS011;4155;50.118;8.714;2022-07-22T13:52:39;8.50;;;5.17;;
8228;SDS011;4155;50.118;8.714;2022-07-22T13:55:12;5.33;;;4.83;;
8228;SDS011;4155;50.118;8.714;2022-07-22T13:57:45;6.23;;;5.40;;
8228;SDS011;4155;50.118;8.714;2022-07-22T14:00:13;7.10;;;5.40;;
8228;SDS011;4155;50.118;8.714;2022-07-22T14:02:43;7.80;;;5.50;;
8228;SDS011;4155;50.118;8.714;2022-07-22T14:05:12;7.83;;;5.37;;
8228;SDS011;4155;50.118;8.714;2022-07-22T14:07:41;13.30;;;5.40;;
8228;SDS011;4155;50.118;8.714;2022-07-22T14:10:09;6.87;;;5.00;;
8228;SDS011;4155;50.118;8.714;2022-07-22T14:12:37;6.80;;;5.43;;
8228;SDS011;4155;50.118;8.714;2022-07-22T14:15:05;6.40;;;4.63;;
8228;SDS011;4155;50.118;8.714;2022-07-22T14:17:34;5.90;;;5.17;;
8228;SDS011;4155;50.118;8.714;2022-07-22T14:20:05;5.97;;;4.50;;
8228;SDS011;4155;50.118;8.714;2022-07-22T14:22:34;7.43;;;5.30;;
8228;SDS011;4155;50.118;8.714;2022-07-22T14:25:01;6.40;;;4.83;;
8228;SDS011;4155;50.118;8.714;2022-07-22T14:27:29;5.60;;;5.10;;
8228;SDS011;4155;50.118;8.714;2022-07-22T14:29:57;5.80;;;5.30;;
8228;SDS011;4155;50.118;8.714;2022-07-22T14:32:25;4.90;;;4.50;;
8228;SDS011;4155;50.118;8.714;2022-07-22T14:34:53;8.00;;;5.90;;
8228;SDS011;4155;50.118;8.714;2022-07-22T14:37:22;5.43;;;4.93;;
8228;SDS011;4155;50.118;8.714;2022-07-22T14:39:52;6.97;;;5.13;;
8228;SDS011;4155;50.118;8.714;2022-07-22T14:42:20;9.53;;;5.50;;
8228;SDS011;4155;50.118;8.714;2022-07-22T14:44:48;8.33;;;5.00;;
8228;SDS011;4155;50.118;8.714;2022-07-22T14:47:15;6.60;;;4.57;;
8228;SDS011;4155;50.118;8.714;2022-07-22T14:49:43;6.13;;;4.83;;
8228;SDS011;4155;50.118;8.714;2022-07-22T14:52:11;5.17;;;4.67;;
8228;SDS011;4155;50.118;8.714;2022-07-22T14:54:40;5.57;;;5.00;;
8228;SDS011;4155;50.118;8.714;2022-07-22T14:57:07;5.40;;;4.60;;
8228;SDS011;4155;50.118;8.714;2022-07-22T14:59:35;5.27;;;4.77;;
8228;SDS011;4155;50.118;8.714;2022-07-22T15:02:03;5.77;;;4.90;;
8228;SDS011;4155;50.118;8.714;2022-07-22T15:04:30;4.93;;;4.43;;
8228;SDS011;4155;50.118;8.714;2022-07-22T15:06:58;11.73;;;4.70;;
8228;SDS011;4155;50.118;8.714;2022-07-22T15:09:28;7.40;;;4.57;;
8228;SDS011;4155;50.118;8.714;2022-07-22T15:11:57;7.60;;;5.40;;
8228;SDS011;4155;50.118;8.714;2022-07-22T15:14:25;5.20;;;4.70;;
8228;SDS011;4155;50.118;8.714;2022-07-22T15:16:52;5.27;;;4.77;;
8228;SDS011;4155;50.118;8.714;2022-07-22T15:19:20;6.93;;;4.50;;
8228;SDS011;4155;50.118;8.714;2022-07-22T15:21:52;7.03;;;4.80;;
8228;SDS011;4155;50.118;8.714;2022-07-22T15:24:20;6.23;;;5.00;;
8228;SDS011;4155;50.118;8.714;2022-07-22T15:26:48;4.97;;;4.47;;
8228;SDS011;4155;50.118;8.714;2022-07-22T15:29:17;5.63;;;4.87;;